createdAt,value
2023-01-23T00:01:44.471Z,100451.94
2023-01-23T00:04:17.658Z,100451.84
2023-01-23T00:06:52.592Z,100445.66
2023-01-23T00:09:26.787Z,100449.91
2023-01-23T00:12:00.127Z,100445.69
2023-01-23T00:14:32.869Z,100441.59
2023-01-23T00:17:05.822Z,100443.50
2023-01-23T00:19:38.570Z,100446.97
2023-01-23T00:22:13.477Z,100449.72
2023-01-23T00:24:48.539Z,100436.13
2023-01-23T00:27:21.322Z,100447.47
2023-01-23T00:29:54.277Z,100443.50
2023-01-23T00:32:28.539Z,100435.78
2023-01-23T00:35:01.676Z,100436.72
2023-01-23T00:37:34.526Z,100444.53
2023-01-23T00:40:10.462Z,100446.44
2023-01-23T00:42:44.335Z,100445.31
2023-01-23T00:45:17.346Z,100446.34
2023-01-23T00:47:50.143Z,100455.22
2023-01-23T00:50:23.071Z,100453.13
2023-01-23T00:52:55.863Z,100452.16
2023-01-23T00:55:29.973Z,100459.25
2023-01-23T00:58:02.804Z,100465.41
2023-01-23T01:00:35.781Z,100460.69
2023-01-23T01:03:09.611Z,100463.72
2023-01-23T01:05:42.497Z,100468.94
2023-01-23T01:08:15.460Z,100469.22
2023-01-23T01:10:49.644Z,100471.22
2023-01-23T01:13:23.752Z,100470.53
2023-01-23T01:15:56.867Z,100469.63
2023-01-23T01:18:30.901Z,100479.84
2023-01-23T01:21:08.604Z,100470.81
2023-01-23T01:23:41.879Z,100480.34
2023-01-23T01:26:15.989Z,100487.78
2023-01-23T01:28:49.170Z,100479.16
2023-01-23T01:31:22.184Z,100485.56
2023-01-23T01:33:55.022Z,100488.75
2023-01-23T01:36:27.933Z,100488.63
2023-01-23T01:39:00.838Z,100492.78
2023-01-23T01:41:35.805Z,100495.31
2023-01-23T01:44:11.040Z,100506.53
2023-01-23T01:46:46.921Z,100502.16
2023-01-23T01:49:23.920Z,100516.59
2023-01-23T01:52:00.547Z,100514.19
2023-01-23T01:54:37.363Z,100514.13
2023-01-23T01:57:15.265Z,100516.31
2023-01-23T01:59:53.027Z,100516.13
2023-01-23T02:02:34.954Z,100523.09
2023-01-23T02:05:11.807Z,100520.75
2023-01-23T02:07:49.332Z,100522.88
2023-01-23T02:10:23.508Z,100518.22
2023-01-23T02:13:12.562Z,100518.63
2023-01-23T02:15:46.265Z,100520.69
2023-01-23T02:18:19.288Z,100525.31
2023-01-23T02:20:53.362Z,100521.63
2023-01-23T02:23:39.287Z,100524.25
2023-01-23T02:26:17.588Z,100526.34
2023-01-23T02:28:53.536Z,100520.78
2023-01-23T02:31:28.976Z,100518.53
2023-01-23T02:34:02.378Z,100520.22
2023-01-23T02:36:36.327Z,100522.69
2023-01-23T02:39:13.652Z,100522.06
2023-01-23T02:41:50.080Z,100517.13
2023-01-23T02:44:27.530Z,100518.03
2023-01-23T02:47:08.026Z,100517.94
2023-01-23T02:49:42.781Z,100514.38
2023-01-23T02:52:15.997Z,100515.41
2023-01-23T02:54:48.920Z,100521.56
2023-01-23T02:57:23.265Z,100519.44
2023-01-23T03:00:13.643Z,100517.13
2023-01-23T03:02:48.414Z,100523.78
2023-01-23T03:05:24.822Z,100521.78
2023-01-23T03:07:58.596Z,100522.66
2023-01-23T03:10:31.594Z,100525.13
2023-01-23T03:13:07.438Z,100532.13
2023-01-23T03:15:42.116Z,100527.38
2023-01-23T03:18:15.030Z,100529.09
2023-01-23T03:20:47.904Z,100535.06
2023-01-23T03:23:20.727Z,100528.75
2023-01-23T03:25:58.451Z,100533.75
2023-01-23T03:28:53.538Z,100532.13
2023-01-23T03:31:26.420Z,100538.06
2023-01-23T03:33:59.702Z,100530.13
2023-01-23T03:36:37.202Z,100527.88
2023-01-23T03:39:27.702Z,100534.19
2023-01-23T03:42:00.820Z,100526.91
2023-01-23T03:44:37.532Z,100525.50
2023-01-23T03:47:10.375Z,100510.63
2023-01-23T03:49:45.190Z,100512.28
2023-01-23T03:52:17.905Z,100518.84
2023-01-23T03:54:50.891Z,100513.22
2023-01-23T03:57:23.615Z,100521.91
2023-01-23T04:00:17.252Z,100519.03
2023-01-23T04:03:10.219Z,100514.84
2023-01-23T04:05:45.065Z,100507.00
2023-01-23T04:08:17.824Z,100515.66
2023-01-23T04:10:50.632Z,100518.63
2023-01-23T04:13:23.392Z,100520.50
2023-01-23T04:15:57.756Z,100525.03
2023-01-23T04:18:31.411Z,100520.56
2023-01-23T04:21:05.839Z,100523.72
2023-01-23T04:23:39.053Z,100525.94
2023-01-23T04:26:12.098Z,100533.84
2023-01-23T04:28:46.176Z,100543.84
2023-01-23T04:31:20.458Z,100546.31
2023-01-23T04:33:53.265Z,100549.81
2023-01-23T04:36:28.378Z,100548.69
2023-01-23T04:39:02.559Z,100562.88
2023-01-23T04:41:35.432Z,100560.69
2023-01-23T04:44:21.646Z,100564.34
2023-01-23T04:47:22.087Z,100571.59
2023-01-23T04:49:55.803Z,100577.91
2023-01-23T04:52:29.798Z,100580.38
2023-01-23T04:55:03.882Z,100588.16
2023-01-23T04:57:37.311Z,100592.47
2023-01-23T05:00:28.704Z,100587.84
2023-01-23T05:03:06.026Z,100597.19
2023-01-23T05:05:39.634Z,100595.38
2023-01-23T05:08:13.091Z,100587.66
2023-01-23T05:10:47.444Z,100594.81
2023-01-23T05:13:23.441Z,100593.53
2023-01-23T05:15:56.296Z,100604.75
2023-01-23T05:18:30.637Z,100603.63
2023-01-23T05:21:03.434Z,100598.72
2023-01-23T05:23:37.177Z,100600.31
2023-01-23T05:26:09.940Z,100597.69
2023-01-23T05:28:42.755Z,100598.13
2023-01-23T05:31:15.660Z,100596.69
2023-01-23T05:34:01.233Z,100594.09
2023-01-23T05:36:34.252Z,100587.66
2023-01-23T05:39:07.103Z,100601.72
2023-01-23T05:41:39.956Z,100603.31
2023-01-23T05:44:36.748Z,100608.13
2023-01-23T05:47:14.416Z,100607.16
2023-01-23T05:49:48.768Z,100614.59
2023-01-23T05:52:21.848Z,100612.59
2023-01-23T05:54:54.775Z,100606.78
2023-01-23T05:57:27.768Z,100606.03
2023-01-23T06:00:23.544Z,100605.09
2023-01-23T06:03:16.570Z,100612.66
2023-01-23T06:06:11.022Z,100616.59
2023-01-23T06:08:43.766Z,100622.00
2023-01-23T06:11:16.527Z,100612.94
2023-01-23T06:13:49.277Z,100612.59
2023-01-23T06:16:22.170Z,100623.75
2023-01-23T06:18:55.404Z,100623.34
2023-01-23T06:21:30.035Z,100634.03
2023-01-23T06:24:03.299Z,100631.91
2023-01-23T06:26:36.333Z,100639.88
2023-01-23T06:29:09.224Z,100638.59
2023-01-23T06:31:42.084Z,100648.22
2023-01-23T06:34:15.260Z,100640.09
2023-01-23T06:37:00.116Z,100650.78
2023-01-23T06:39:34.140Z,100647.69
2023-01-23T06:42:10.141Z,100663.19
2023-01-23T06:44:48.143Z,100662.63
2023-01-23T06:47:22.635Z,100666.69
2023-01-23T06:50:02.573Z,100674.22
2023-01-23T06:52:40.122Z,100667.94
2023-01-23T06:55:14.583Z,100672.09
2023-01-23T06:57:47.655Z,100683.31
2023-01-23T07:00:22.375Z,100689.25
2023-01-23T07:02:58.884Z,100686.75
2023-01-23T07:05:32.646Z,100685.13
2023-01-23T07:08:06.943Z,100696.03
2023-01-23T07:10:40.714Z,100699.59
2023-01-23T07:13:13.541Z,100727.28
2023-01-23T07:15:47.814Z,100714.66
2023-01-23T07:18:20.763Z,100724.00
2023-01-23T07:20:54.128Z,100734.38
2023-01-23T07:23:28.248Z,100725.81
2023-01-23T07:26:01.489Z,100728.75
2023-01-23T07:28:34.350Z,100729.06
2023-01-23T07:31:07.591Z,100727.75
2023-01-23T07:33:40.368Z,100731.16
2023-01-23T07:36:14.078Z,100736.69
2023-01-23T07:38:48.310Z,100746.66
2023-01-23T07:41:21.078Z,100731.78
2023-01-23T07:43:53.766Z,100742.94
2023-01-23T07:46:27.693Z,100740.44
2023-01-23T07:49:00.454Z,100729.06
2023-01-23T07:51:33.151Z,100738.72
2023-01-23T07:54:07.403Z,100735.41
2023-01-23T07:56:40.203Z,100738.91
2023-01-23T07:59:13.547Z,100738.50
2023-01-23T08:01:46.295Z,100740.28
2023-01-23T08:04:19.236Z,100731.38
2023-01-23T08:06:52.643Z,100742.16
2023-01-23T08:09:26.788Z,100725.22
2023-01-23T08:11:59.519Z,100727.88
2023-01-23T08:14:32.364Z,100731.13
2023-01-23T08:17:05.100Z,100723.13
2023-01-23T08:19:37.793Z,100735.41
2023-01-23T08:22:10.567Z,100737.78
2023-01-23T08:24:44.740Z,100740.72
2023-01-23T08:27:17.536Z,100736.66
2023-01-23T08:29:50.297Z,100737.94
2023-01-23T08:32:23.061Z,100749.69
2023-01-23T08:34:56.042Z,100745.00
2023-01-23T08:37:28.778Z,100748.94
2023-01-23T08:40:03.036Z,100727.88
2023-01-23T08:42:35.796Z,100730.41
2023-01-23T08:45:09.612Z,100723.44
2023-01-23T08:47:42.383Z,100725.41
2023-01-23T08:50:15.379Z,100727.66
2023-01-23T08:52:48.129Z,100731.66
2023-01-23T08:55:22.358Z,100726.44
2023-01-23T08:57:55.156Z,100724.09
2023-01-23T09:00:28.009Z,100717.94
2023-01-23T09:03:00.850Z,100712.97
2023-01-23T09:05:33.908Z,100709.91
2023-01-23T09:08:06.753Z,100718.41
2023-01-23T09:10:40.855Z,100727.19
2023-01-23T09:13:14.498Z,100728.75
2023-01-23T09:15:47.845Z,100726.84
2023-01-23T09:18:22.805Z,100729.03
2023-01-23T09:20:56.238Z,100736.22
2023-01-23T09:23:29.035Z,100737.59
2023-01-23T09:26:06.507Z,100733.88
2023-01-23T09:28:42.405Z,100734.38
2023-01-23T09:31:15.574Z,100729.69
2023-01-23T09:33:49.675Z,100728.53
2023-01-23T09:36:37.591Z,100737.84
2023-01-23T09:39:14.805Z,100738.88
2023-01-23T09:41:50.036Z,100737.38
2023-01-23T09:44:28.179Z,100742.25
2023-01-23T09:47:07.453Z,100737.38
2023-01-23T09:49:45.758Z,100747.66
2023-01-23T09:52:22.316Z,100746.06
2023-01-23T09:54:59.021Z,100742.34
2023-01-23T09:57:37.860Z,100741.31
2023-01-23T10:00:16.539Z,100737.94
2023-01-23T10:02:49.388Z,100735.94
2023-01-23T10:05:35.501Z,100736.53
2023-01-23T10:08:22.948Z,100737.50
2023-01-23T10:11:04.438Z,100739.59
2023-01-23T10:14:01.027Z,100735.44
2023-01-23T10:16:55.521Z,100734.75
2023-01-23T10:19:54.003Z,100733.69
2023-01-23T10:22:36.094Z,100739.22
2023-01-23T10:25:15.465Z,100734.81
2023-01-23T10:27:50.691Z,100735.34
2023-01-23T10:30:29.731Z,100733.47
2023-01-23T10:33:10.983Z,100732.41
2023-01-23T10:35:50.816Z,100732.78
2023-01-23T10:38:28.207Z,100725.59
2023-01-23T10:41:21.688Z,100735.56
2023-01-23T10:43:57.007Z,100729.06
2023-01-23T10:46:35.491Z,100734.66
2023-01-23T10:49:08.341Z,100734.34
2023-01-23T10:51:48.720Z,100743.75
2023-01-23T10:54:31.922Z,100737.88
2023-01-23T10:57:22.806Z,100740.38
2023-01-23T10:59:58.035Z,100737.41
2023-01-23T11:02:34.617Z,100742.66
2023-01-23T11:05:46.891Z,100743.06
2023-01-23T11:08:27.454Z,100743.13
2023-01-23T11:11:22.761Z,100738.31
2023-01-23T11:14:07.323Z,100739.44
2023-01-23T11:16:40.542Z,100733.69
2023-01-23T11:19:21.754Z,100737.63
2023-01-23T11:21:56.909Z,100731.44
2023-01-23T11:24:40.815Z,100732.78
2023-01-23T11:27:20.225Z,100738.81
2023-01-23T11:30:29.930Z,100731.31
2023-01-23T11:33:13.455Z,100732.19
2023-01-23T11:36:01.868Z,100735.41
2023-01-23T11:38:47.996Z,100738.78
2023-01-23T11:41:29.452Z,100741.34
2023-01-23T11:44:07.851Z,100741.25
2023-01-23T11:46:58.429Z,100738.53
2023-01-23T11:49:41.077Z,100728.69
2023-01-23T11:52:32.236Z,100724.72
2023-01-23T11:55:19.995Z,100725.06
2023-01-23T11:58:05.576Z,100715.59
2023-01-23T12:00:43.583Z,100720.06
2023-01-23T12:03:37.555Z,100711.75
2023-01-23T12:06:29.777Z,100705.56
2023-01-23T12:09:12.245Z,100704.38
2023-01-23T12:12:05.506Z,100695.56
2023-01-23T12:14:48.758Z,100689.81
2023-01-23T12:19:51.614Z,100688.72
2023-01-23T12:21:33.679Z,100687.59
2023-01-23T12:24:19.260Z,100678.75
2023-01-23T12:27:01.346Z,100679.91
2023-01-23T12:30:13.641Z,100671.03
2023-01-23T12:32:58.468Z,100664.00
2023-01-23T12:35:36.753Z,100666.19
2023-01-23T12:38:25.079Z,100662.06
2023-01-23T12:41:14.080Z,100659.31
2023-01-23T12:43:54.229Z,100648.63
2023-01-23T12:46:35.231Z,100648.16
2023-01-23T12:49:20.167Z,100638.47
2023-01-23T12:51:58.924Z,100642.50
2023-01-23T12:54:38.269Z,100634.34
2023-01-23T12:57:14.279Z,100628.25
2023-01-23T12:59:59.176Z,100631.88
2023-01-23T13:02:39.927Z,100627.13
2023-01-23T13:05:20.602Z,100630.00
2023-01-23T13:08:01.751Z,100633.16
2023-01-23T13:11:08.695Z,100623.44
2023-01-23T13:13:46.155Z,100624.16
2023-01-23T13:16:20.643Z,100625.63
2023-01-23T13:19:13.360Z,100626.38
2023-01-23T13:22:05.210Z,100622.78
2023-01-23T13:25:03.256Z,100622.13
2023-01-23T13:27:45.812Z,100630.59
2023-01-23T13:30:45.224Z,100630.09
2023-01-23T13:33:52.192Z,100630.13
2023-01-23T13:36:38.717Z,100627.81
2023-01-23T13:39:23.974Z,100614.72
2023-01-23T13:42:33.286Z,100620.13
2023-01-23T13:45:30.871Z,100619.50
2023-01-23T14:21:02.908Z,100591.88
2023-01-23T14:23:39.841Z,100583.91
2023-01-23T14:26:17.518Z,100586.13
2023-01-23T14:28:57.398Z,100593.94
2023-01-23T14:31:31.992Z,100596.78
2023-01-23T14:34:10.624Z,100589.00
2023-01-23T14:36:47.598Z,100582.59
2023-01-23T14:39:24.532Z,100579.63
2023-01-23T14:42:02.281Z,100579.09
2023-01-23T14:44:44.116Z,100578.56
2023-01-23T14:47:21.584Z,100580.88
2023-01-23T14:49:55.478Z,100578.78
2023-01-23T14:52:30.454Z,100570.41
2023-01-23T14:55:08.095Z,100579.34
2023-01-23T14:57:41.451Z,100575.19
2023-01-23T15:00:19.077Z,100578.53
2023-01-23T15:02:54.242Z,100575.69
2023-01-23T15:05:28.578Z,100573.84
2023-01-23T15:08:04.139Z,100576.38
2023-01-23T15:10:48.861Z,100575.09
2023-01-23T15:13:24.995Z,100585.44
2023-01-23T15:16:00.846Z,100581.41
2023-01-23T15:18:35.980Z,100576.78
2023-01-23T15:21:09.978Z,100579.91
2023-01-23T15:24:01.149Z,100577.34
2023-01-23T15:26:36.929Z,100576.91
2023-01-23T15:29:20.440Z,100577.34
2023-01-23T15:31:54.479Z,100576.19
2023-01-23T15:34:31.287Z,100571.84
2023-01-23T15:37:06.850Z,100573.78
2023-01-23T15:39:49.716Z,100581.09
2023-01-23T15:42:30.293Z,100569.53
2023-01-23T15:45:03.873Z,100576.91
2023-01-23T15:47:36.617Z,100587.03
2023-01-23T15:50:13.820Z,100588.16
2023-01-23T15:52:48.701Z,100590.53
2023-01-23T15:55:24.475Z,100588.59
2023-01-23T15:57:58.686Z,100589.03
2023-01-23T16:00:31.453Z,100597.88
2023-01-23T16:03:04.475Z,100602.63
2023-01-23T16:05:38.474Z,100594.56
2023-01-23T16:08:20.169Z,100598.13
2023-01-23T16:10:52.940Z,100597.09
2023-01-23T16:13:26.980Z,100601.16
2023-01-23T16:15:59.728Z,100604.59
2023-01-23T16:18:32.623Z,100610.31
2023-01-23T16:21:05.903Z,100611.50
2023-01-23T16:23:47.318Z,100619.56
2023-01-23T16:26:22.827Z,100615.66
2023-01-23T16:29:08.702Z,100606.59
2023-01-23T16:31:46.135Z,100616.69
2023-01-23T16:34:18.943Z,100619.59
2023-01-23T16:36:54.727Z,100626.44
2023-01-23T16:39:28.980Z,100620.25
2023-01-23T16:42:02.124Z,100633.03
2023-01-23T16:44:36.178Z,100630.47
2023-01-23T16:47:09.032Z,100629.88
2023-01-23T16:49:57.252Z,100634.03
2023-01-23T16:52:30.206Z,100624.84
2023-01-23T16:55:06.428Z,100626.13
2023-01-23T16:57:39.346Z,100632.97
2023-01-23T17:00:19.088Z,100615.16
2023-01-23T17:02:57.750Z,100612.34
2023-01-23T17:05:30.601Z,100606.22
2023-01-23T17:08:16.962Z,100615.28
2023-01-23T17:10:52.417Z,100614.69
2023-01-23T17:13:25.753Z,100617.31
2023-01-23T17:16:01.341Z,100618.56
2023-01-23T17:18:37.264Z,100630.16
2023-01-23T17:21:17.979Z,100622.28
2023-01-23T17:23:50.852Z,100636.28
2023-01-23T17:26:23.619Z,100635.91
2023-01-23T17:28:56.430Z,100630.69
2023-01-23T17:31:32.511Z,100649.28
2023-01-23T17:34:06.400Z,100647.22
2023-01-23T17:36:39.204Z,100655.34
2023-01-23T17:39:12.881Z,100659.31
2023-01-23T17:41:45.643Z,100664.22
2023-01-23T17:44:18.376Z,100663.94
2023-01-23T17:46:54.655Z,100667.72
2023-01-23T17:50:20.770Z,100669.25
2023-01-23T17:53:19.391Z,100673.44
2023-01-23T17:55:52.945Z,100690.50
2023-01-23T17:58:25.982Z,100690.09
2023-01-23T18:00:59.503Z,100692.84
2023-01-23T18:03:36.330Z,100699.31
2023-01-23T18:06:09.090Z,100688.69
2023-01-23T18:08:42.351Z,100684.59
2023-01-23T18:11:18.775Z,100691.38
2023-01-23T18:14:18.101Z,100695.16
2023-01-23T18:16:51.431Z,100699.19
2023-01-23T18:19:27.490Z,100698.50
2023-01-23T18:22:00.865Z,100701.59
2023-01-23T18:24:35.099Z,100699.59
2023-01-23T18:27:19.992Z,100705.25
2023-01-23T18:30:17.770Z,100689.38
2023-01-23T18:33:07.870Z,100690.28
2023-01-23T18:35:57.989Z,100696.72
2023-01-23T18:38:42.051Z,100698.75
2023-01-23T18:41:22.388Z,100704.50
2023-01-23T18:43:58.339Z,100707.19
2023-01-23T18:46:31.562Z,100720.63
2023-01-23T18:49:04.887Z,100718.00
2023-01-23T18:51:47.854Z,100725.94
2023-01-23T18:54:30.757Z,100732.94
2023-01-23T18:57:19.351Z,100734.75
2023-01-23T19:00:04.618Z,100739.19
2023-01-23T19:02:46.616Z,100743.28
2023-01-23T19:05:25.034Z,100743.00
2023-01-23T19:08:00.851Z,100742.75
2023-01-23T19:10:48.082Z,100737.97
2023-01-23T19:13:25.607Z,100744.94
2023-01-23T19:16:05.580Z,100730.75
2023-01-23T19:18:47.440Z,100730.75
2023-01-23T19:21:23.645Z,100729.28
2023-01-23T19:24:00.158Z,100729.03
2023-01-23T19:26:35.209Z,100735.44
2023-01-23T19:29:20.906Z,100732.75
2023-01-23T19:32:04.690Z,100739.88
2023-01-23T19:34:38.127Z,100734.84
2023-01-23T19:37:11.064Z,100739.81
2023-01-23T19:39:45.237Z,100737.84
2023-01-23T19:42:18.010Z,100746.28
2023-01-23T19:44:50.872Z,100741.41
2023-01-23T19:47:23.631Z,100725.63
2023-01-23T19:49:56.399Z,100736.56
2023-01-23T19:52:29.190Z,100733.06
2023-01-23T19:55:03.385Z,100736.22
2023-01-23T19:57:36.119Z,100743.97
2023-01-23T20:00:14.120Z,100738.50
2023-01-23T20:02:47.121Z,100745.75
2023-01-23T20:05:20.795Z,100744.53
2023-01-23T20:07:54.842Z,100746.19
2023-01-23T20:10:29.095Z,100750.22
2023-01-23T20:13:02.588Z,100748.63
2023-01-23T20:15:35.418Z,100760.81
2023-01-23T20:18:08.234Z,100749.47
2023-01-23T20:20:41.127Z,100758.59
2023-01-23T20:23:14.470Z,100762.34
2023-01-23T20:25:57.749Z,100769.97
2023-01-23T20:28:30.953Z,100764.81
2023-01-23T20:31:08.999Z,100766.19
2023-01-23T20:33:41.852Z,100757.31
2023-01-23T20:36:15.905Z,100758.94
2023-01-23T20:38:48.965Z,100758.72
2023-01-23T20:41:23.527Z,100763.09
2023-01-23T20:43:56.298Z,100772.28
2023-01-23T20:46:29.228Z,100776.47
2023-01-23T20:49:02.630Z,100777.56
2023-01-23T20:51:35.442Z,100780.09
2023-01-23T20:54:07.291Z,100780.41
2023-01-23T20:56:41.352Z,100784.06
2023-01-23T20:59:19.127Z,100777.13
2023-01-23T21:02:09.846Z,100787.16
2023-01-23T21:04:43.306Z,100791.72
2023-01-23T21:07:20.488Z,100777.47
2023-01-23T21:09:53.384Z,100771.84
2023-01-23T21:12:27.671Z,100772.00
2023-01-23T21:15:00.936Z,100779.16
2023-01-23T21:17:33.721Z,100774.75
2023-01-23T21:20:07.625Z,100760.63
2023-01-23T21:22:40.406Z,100763.00
2023-01-23T21:25:13.179Z,100771.41
2023-01-23T21:27:47.321Z,100776.84
2023-01-23T21:30:20.174Z,100773.28
2023-01-23T21:32:52.947Z,100772.16
2023-01-23T21:35:25.689Z,100783.56
2023-01-23T21:37:58.966Z,100776.75
2023-01-23T21:40:31.718Z,100789.97
2023-01-23T21:43:05.865Z,100791.47
2023-01-23T21:45:38.655Z,100793.59
2023-01-23T21:48:13.299Z,100794.13
2023-01-23T21:50:46.037Z,100802.41
2023-01-23T21:53:18.852Z,100803.13
2023-01-23T21:55:52.820Z,100799.78
2023-01-23T21:58:26.905Z,100799.78
2023-01-23T22:01:18.923Z,100809.66
2023-01-23T22:03:52.494Z,100793.69
2023-01-23T22:06:25.539Z,100800.19
2023-01-23T22:08:58.995Z,100798.13
2023-01-23T22:11:32.064Z,100806.72
2023-01-23T22:14:06.202Z,100806.81
2023-01-23T22:16:49.018Z,100799.00
2023-01-23T22:19:25.541Z,100806.63
2023-01-23T22:21:58.695Z,100800.16
2023-01-23T22:24:31.625Z,100794.66
2023-01-23T22:27:04.824Z,100797.78
2023-01-23T22:29:38.969Z,100806.44
2023-01-23T22:32:11.873Z,100795.56
2023-01-23T22:34:44.700Z,100797.84
2023-01-23T22:37:18.539Z,100801.06
2023-01-23T22:39:51.310Z,100804.22
2023-01-23T22:42:24.030Z,100799.06
2023-01-23T22:44:58.101Z,100798.59
2023-01-23T22:47:30.831Z,100801.47
2023-01-23T22:50:03.553Z,100790.94
2023-01-23T22:52:36.310Z,100801.16
2023-01-23T22:55:09.678Z,100795.66
2023-01-23T22:57:43.073Z,100794.94
2023-01-23T23:00:17.837Z,100794.50
2023-01-23T23:02:50.538Z,100791.63
2023-01-23T23:05:23.613Z,100792.59
2023-01-23T23:07:56.420Z,100780.06
2023-01-23T23:10:29.159Z,100782.97
2023-01-23T23:13:01.955Z,100783.66
2023-01-23T23:15:37.164Z,100797.50
2023-01-23T23:18:09.881Z,100797.53
2023-01-23T23:20:42.630Z,100788.00
2023-01-23T23:23:15.470Z,100788.88
2023-01-23T23:25:53.045Z,100790.84
2023-01-23T23:28:27.550Z,100797.59
2023-01-23T23:31:01.861Z,100795.13
2023-01-23T23:33:34.743Z,100797.88
2023-01-23T23:36:08.409Z,100809.63
2023-01-23T23:38:41.224Z,100807.84
2023-01-23T23:41:18.593Z,100790.75
2023-01-23T23:43:51.535Z,100797.28
2023-01-23T23:46:26.124Z,100796.41
2023-01-23T23:48:59.068Z,100791.66
2023-01-23T23:51:31.993Z,100793.69
2023-01-23T23:54:04.823Z,100788.16
2023-01-23T23:56:37.615Z,100789.09
2023-01-23T23:59:15.580Z,100785.03
